AirNav   ATP
 
 1624 users online  

TA20 San Jacinto Methodist Hospital Heliport
Baytown, Texas, USA

GOING TO BAYTOWN?


FAA INFORMATION EFFECTIVE 20 JULY 2017

Location

FAA Identifier: TA20
Lat/Long: 29-46-09.0600N / 094-58-43.4100W
29-46.151000N / 094-58.723500W
29.7691833 / -94.9787250
(estimated)
Elevation: 24 ft. / 7 m (estimated)
Variation: 06E (1985)
Time zone: UTC -5 (UTC -6 during Standard Time)
Zip code: 77521

Heliport Operations

Heliport use: Private use. Permission required prior to landing
Activation date: 06/1989
Control tower: no
ARTCC: HOUSTON CENTER
FSS: MONTGOMERY COUNTY FLIGHT SERVICE STATION
Attendance: UNATNDD
Wind indicator: lighted
Segmented circle: no

Heliport Communications

WX ASOS at HOU (17 nm SW): PHONE 713-847-1462

Nearby radio navigation aids

VOR radial/distance  VOR name  Freq  Var
HUBr061/17.0HOBBY VOR/DME117.1005E
MHFr311/18.0TRINITY VOR/DME113.6007E
IAHr116/22.2HUMBLE VORTAC116.6005E
VUHr343/30.5SCHOLES VOR/DME113.0006E
DASr210/30.6DAISETTA VORTAC116.9005E

 
NDB name  Hdg/Dist  Freq  Var  ID
SANJAC033/7.734705EJPA .--- .--. .-
NIXIN133/18.232605EBVP -... ...- .--.
GALVESTON328/28.620608EGLS --. .-.. ...

Heliport Services

Runway Information

Helipad H1

Dimensions: 60 x 60 ft. / 18 x 18 m
Surface: concrete
Latitude: 29-46.151000N
Longitude: 094-58.723500W
Elevation: 24.0 ft.
Traffic pattern: leftleft

Heliport Ownership and Management from official FAA records

Ownership: Privately-owned
Owner: SAN JACINTO METHODIST HOSP.
4401 GARTH ROAD
BAYTOWN, TX 77521
Phone 713-420-8765
Manager: ROD SEIDEL
4401 GARTH ROAD
BAYTOWN, TX 77521
Phone 713-420-8765

Instrument Procedures

There are no published instrument procedures at TA20.

Some nearby airports with instrument procedures:

KHPY - Baytown Airport (2 nm NE)
54T - RWJ Airpark (7 nm E)
T41 - La Porte Municipal Airport (7 nm SW)
KEFD - Ellington Airport (14 nm SW)
T00 - Chambers County Airport (16 nm E)
KHOU - William P Hobby Airport (17 nm SW)
 
Loc | Ops | Rwys | IFR | FBO | Links
Com | Nav | Svcs | Stats | Notes


 
Area around TA20 (San Jacinto Methodist Hospital Heliport)
 
Road maps at: MapQuest Bing Google
 
Aerial photo
No photo
 
Sectional chart

 
Airport distance calculator
Flying to San Jacinto Methodist Hospital Heliport? Find the distance to fly.

From to TA20

Sunrise and sunset
Times for 24-Jul-2017
 Local
(UTC-5)
 Zulu
(UTC)
Morning civil twilight06:0911:09
Sunrise06:3611:36
Sunset20:1701:17
Evening civil twilight20:4301:43

Current date and time
Zulu (UTC)  24-Jul-2017 17:11:34
Local (UTC-5)  24-Jul-2017 12:11:34
 
METAR
KEFD 
14nm SW 
241650Z 24006KT 10SM SCT025 OVC250 33/24 A3004
KHOU 
18nm SW 
241653Z 20005KT 10SM SCT035 OVC250 32/22 A3002 RMK AO2 SLP168 T03220222
KLVJ 
21nm SW 
241653Z AUTO VRB05KT 8SM CLR 33/22 A3003 RMK AO2 SLP169 T03330217
KIAH 
24nm NW 
241653Z 23008KT 10SM SCT035 BKN250 32/23 A3002 RMK AO2 SLP164 T03220228
TAF
KHOU 
18nm SW 
241508Z 2415/2512 21010KT P6SM BKN022 BKN200 FM241700 21010KT P6SM SCT035 BKN200 FM242200 18009KT P6SM SCT045 BKN250 FM250400 19007KT P6SM FEW015 BKN150 FM250800 20004KT P6SM SCT015 BKN150
NOTAMs
Click for the latest NOTAMs
NOTAMs are issued by the DoD/FAA and will open in a separate window not controlled by AirNav.

 

 
 

Would you like to see your business listed on this page?

 If your business provides an interesting product or service to pilots, flight crews, aircraft, or users of the San Jacinto Methodist Hospital Heliport, you should consider listing it here.  To start the listing process, click on the button below
 
Add a business
 

Other Pages about San Jacinto Methodist Hospital Heliport

Update a link
 
Copyright © AirNav, LLC. All rights reserved. Privacy Policy  Contact